Time;durP1;ratioP1;P1;durP2;ratioP2;P2;SDS_P1;SDS_P2;PMS_P1;PMS_P2;Temp;Humidity;BMP_temperature;BMP_pressure;BME280_temperature;BME280_humidity;BME280_pressure;Samples;Min_cycle;Max_cycle;Signal;HPM_P1;HPM_P2
2022/05/19 00:01:01;;;;;;;1.17;1.05;;;19.60;69.20;;;;;;5096693;28;20401;-75
2022/05/19 00:03:24;;;;;;;2.33;0.90;;;19.50;69.30;;;;;;5114798;28;20035;-75
2022/05/19 00:05:49;;;;;;;1.25;1.00;;;19.50;69.40;;;;;;5114942;28;20039;-75
2022/05/19 00:08:15;;;;;;;0.90;0.80;;;19.40;70.10;;;;;;5096864;28;20097;-75
2022/05/19 00:10:42;;;;;;;0.88;0.73;;;19.40;69.60;;;;;;5114787;28;20123;-75
2022/05/19 00:13:08;;;;;;;1.27;1.08;;;19.30;69.70;;;;;;5096722;28;20043;-75
2022/05/19 00:15:34;;;;;;;0.90;0.77;;;19.30;69.80;;;;;;5114845;28;20066;-75
2022/05/19 00:18:00;;;;;;;1.73;1.08;;;19.20;69.80;;;;;;5096307;28;20079;-75
2022/05/19 00:20:25;;;;;;;1.00;0.90;;;19.20;69.80;;;;;;5115228;28;20402;-75
2022/05/19 00:22:53;;;;;;;0.80;0.80;;;19.20;69.90;;;;;;5096351;28;20039;-75
2022/05/19 00:25:19;;;;;;;0.77;0.77;;;19.20;69.90;;;;;;5114839;28;20086;-75
2022/05/19 00:27:44;;;;;;;1.15;0.85;;;19.20;70.00;;;;;;5115124;28;20481;-75
2022/05/19 00:30:11;;;;;;;2.22;1.05;;;19.10;70.00;;;;;;5079265;28;20146;-75
2022/05/19 00:32:37;;;;;;;1.20;0.90;;;19.20;70.10;;;;;;5096412;28;20051;-76
2022/05/19 00:35:03;;;;;;;2.15;1.38;;;19.10;70.10;;;;;;5114530;28;20042;-75
2022/05/19 00:37:28;;;;;;;2.50;1.60;;;19.10;70.20;;;;;;5114314;28;20374;-75
2022/05/19 00:39:54;;;;;;;1.90;1.00;;;19.10;70.30;;;;;;5114221;28;20038;-76
2022/05/19 00:45:04;;;;;;;1.38;1.10;;;19.10;70.50;;;;;;5114304;28;20477;-76
2022/05/19 00:47:39;;;;;;;2.33;1.02;;;19.00;70.50;;;;;;5114298;28;20067;-75
2022/05/19 00:50:09;;;;;;;3.15;1.42;;;19.00;70.60;;;;;;5112635;28;20071;-75
2022/05/19 00:52:39;;;;;;;0.80;0.80;;;19.00;70.70;;;;;;5114436;28;20436;-75
2022/05/19 00:55:12;;;;;;;1.33;1.10;;;19.00;70.70;;;;;;5114012;28;20070;-75
2022/05/19 00:57:43;;;;;;;1.10;1.00;;;19.00;70.80;;;;;;5113924;28;20035;-76
2022/05/19 01:00:15;;;;;;;1.83;1.20;;;18.90;70.80;;;;;;5114194;28;20058;-75
2022/05/19 01:02:49;;;;;;;1.45;1.15;;;18.90;70.90;;;;;;5114338;28;20040;-75
2022/05/19 01:05:21;;;;;;;1.52;1.20;;;19.00;70.90;;;;;;5113964;28;20074;-75
2022/05/19 01:08:19;;;;;;;1.95;1.25;;;18.90;70.90;;;;;;5114429;28;20469;-75
2022/05/19 01:10:45;;;;;;;1.98;1.45;;;18.90;71.00;;;;;;5113944;28;20081;-75
2022/05/19 01:13:12;;;;;;;2.92;1.55;;;18.90;71.00;;;;;;5114000;28;20065;-75
2022/05/19 01:15:42;;;;;;;2.75;1.40;;;18.90;71.00;;;;;;5113991;28;20456;-75
2022/05/19 01:18:11;;;;;;;2.33;1.73;;;18.90;71.00;;;;;;5095910;28;20064;-75
2022/05/19 01:20:38;;;;;;;2.47;1.60;;;18.90;71.00;;;;;;5113920;28;20114;-76
2022/05/19 01:23:18;;;;;;;1.70;1.17;;;19.00;71.10;;;;;;5096445;28;20042;-75
2022/05/19 01:25:55;;;;;;;;;;;18.90;71.00;;;;;;5114180;28;20040;-75
2022/05/19 01:28:21;;;;;;;1.60;1.13;;;19.00;71.00;;;;;;5111699;28;19912;-75
2022/05/19 01:30:47;;;;;;;1.10;1.00;;;19.00;70.90;;;;;;5095213;28;20059;-75
2022/05/19 01:33:14;;;;;;;2.58;1.50;;;19.00;71.00;;;;;;5095347;28;20130;-75
2022/05/19 01:35:39;;;;;;;2.17;1.60;;;19.00;71.10;;;;;;5095442;28;20042;-75
2022/05/19 01:38:14;;;;;;;2.80;1.80;;;19.00;71.20;;;;;;5113664;28;20044;-75
2022/05/19 01:41:11;;;;;;;1.48;1.30;;;19.00;71.30;;;;;;5111588;28;20036;-76
2022/05/19 01:44:01;;;;;;;1.25;1.00;;;19.00;71.40;;;;;;5098621;28;20063;-75
2022/05/19 01:46:33;;;;;;;2.70;1.52;;;18.90;71.30;;;;;;5113073;28;20123;-75
2022/05/19 01:49:11;;;;;;;2.50;1.30;;;18.90;71.40;;;;;;5112597;28;20520;-75
2022/05/19 01:51:47;;;;;;;3.10;1.58;;;18.90;71.50;;;;;;5113151;28;20032;-75
2022/05/19 01:54:21;;;;;;;1.45;1.23;;;18.90;71.60;;;;;;5113758;28;20046;-75
2022/05/19 01:56:58;;;;;;;2.25;1.40;;;18.90;71.80;;;;;;5093882;28;20088;-75
2022/05/19 01:59:51;;;;;;;2.33;1.50;;;19.00;71.80;;;;;;5096481;28;20035;-75
2022/05/19 02:02:27;;;;;;;1.50;1.00;;;18.80;71.80;;;;;;5093193;28;20039;-75
2022/05/19 02:05:00;;;;;;;3.15;1.50;;;18.80;71.90;;;;;;5113308;28;20431;-75
2022/05/19 02:07:27;;;;;;;0.93;0.85;;;18.80;72.00;;;;;;5094770;28;20047;-75
2022/05/19 02:10:06;;;;;;;2.83;1.80;;;18.80;72.00;;;;;;5113479;28;20112;-75
2022/05/19 02:12:33;;;;;;;1.70;1.33;;;18.70;72.10;;;;;;5111895;28;20061;-75
2022/05/19 02:15:03;;;;;;;2.75;1.90;;;18.70;72.20;;;;;;5112883;28;20122;-75
2022/05/19 02:17:32;;;;;;;2.80;1.58;;;18.60;72.30;;;;;;5112665;28;20046;-75
2022/05/19 02:20:04;;;;;;;2.60;1.55;;;18.70;72.50;;;;;;5112888;28;20386;-75
2022/05/19 02:22:35;;;;;;;1.95;1.50;;;18.60;72.50;;;;;;5112659;28;20065;-75
2022/05/19 02:25:10;;;;;;;3.10;1.75;;;18.60;72.60;;;;;;5094343;28;20093;-75
2022/05/19 02:27:50;;;;;;;1.85;1.35;;;18.60;72.70;;;;;;5111846;28;20409;-75
2022/05/19 02:30:23;;;;;;;1.77;1.17;;;18.60;72.80;;;;;;5094582;28;20043;-75
2022/05/19 02:32:49;;;;;;;1.85;1.38;;;18.60;72.80;;;;;;5112684;28;20073;-75
2022/05/19 02:35:17;;;;;;;1.52;1.10;;;18.50;72.80;;;;;;5112642;28;20039;-75
2022/05/19 02:37:43;;;;;;;1.35;1.17;;;18.50;72.90;;;;;;5094585;28;20051;-75
2022/05/19 02:40:11;;;;;;;3.83;1.73;;;18.50;73.00;;;;;;5112978;28;20047;-74
2022/05/19 02:42:37;;;;;;;2.40;1.58;;;18.50;73.10;;;;;;5077707;28;20039;-75
2022/05/19 02:45:04;;;;;;;2.63;1.60;;;18.40;73.20;;;;;;5112573;28;20039;-75
2022/05/19 02:47:30;;;;;;;2.30;1.70;;;18.50;73.20;;;;;;5110948;28;20497;-75
2022/05/19 02:49:56;;;;;;;1.65;1.30;;;18.40;73.30;;;;;;5112606;28;20069;-75
2022/05/19 02:52:22;;;;;;;2.58;1.55;;;18.40;73.40;;;;;;5112392;28;20050;-75
2022/05/19 02:54:49;;;;;;;1.67;1.30;;;18.30;73.40;;;;;;5094322;28;20051;-74
2022/05/19 02:57:15;;;;;;;2.72;1.70;;;18.40;73.50;;;;;;5112245;28;20051;-75
2022/05/19 02:59:40;;;;;;;1.13;1.02;;;18.30;73.50;;;;;;5094009;28;20052;-75
2022/05/19 03:02:06;;;;;;;1.20;1.10;;;18.30;73.60;;;;;;5112229;28;20043;-75
2022/05/19 03:04:32;;;;;;;1.48;1.27;;;18.30;73.60;;;;;;5094253;28;20400;-75
2022/05/19 03:06:58;;;;;;;2.08;1.10;;;18.30;73.60;;;;;;5112741;28;20044;-75
2022/05/19 03:09:23;;;;;;;1.70;1.40;;;18.30;73.60;;;;;;5112121;28;20036;-75
2022/05/19 03:11:49;;;;;;;2.00;1.30;;;18.30;73.70;;;;;;5112645;28;20039;-75
2022/05/19 03:14:15;;;;;;;1.38;1.10;;;18.30;73.70;;;;;;5094890;28;20047;-75
2022/05/19 03:16:41;;;;;;;1.58;1.30;;;18.20;73.70;;;;;;5115485;28;20035;-75
2022/05/19 03:19:09;;;;;;;2.53;1.60;;;18.30;73.80;;;;;;5097355;28;20393;-75
2022/05/19 03:21:35;;;;;;;1.70;1.10;;;18.20;73.80;;;;;;5115897;28;20069;-75
2022/05/19 03:24:02;;;;;;;1.95;1.20;;;18.20;73.90;;;;;;5116095;28;20039;-75
2022/05/19 03:26:28;;;;;;;1.80;1.40;;;18.20;73.90;;;;;;5116068;28;20051;-75
2022/05/19 03:28:54;;;;;;;1.67;1.42;;;18.20;73.90;;;;;;5115395;28;20040;-75
2022/05/19 03:31:19;;;;;;;2.78;1.58;;;18.20;73.90;;;;;;5115963;28;20048;-76
2022/05/19 03:33:45;;;;;;;2.80;2.05;;;18.30;74.10;;;;;;5097121;28;20040;-76
2022/05/19 03:36:12;;;;;;;3.67;2.08;;;18.20;74.20;;;;;;5115251;28;20382;-76
2022/05/19 03:38:38;;;;;;;3.25;2.00;;;18.10;74.40;;;;;;5115678;28;20508;-76
2022/05/19 03:41:04;;;;;;;2.97;2.13;;;18.20;74.40;;;;;;5115307;28;20531;-76
2022/05/19 03:43:30;;;;;;;2.83;1.77;;;18.20;74.20;;;;;;5115344;28;20044;-76
2022/05/19 03:45:56;;;;;;;2.50;1.70;;;18.30;74.10;;;;;;5097144;28;20031;-76
2022/05/19 03:48:22;;;;;;;1.95;1.50;;;18.40;74.00;;;;;;5115751;28;20039;-76
2022/05/19 03:50:49;;;;;;;1.88;1.20;;;18.40;73.90;;;;;;5115421;28;20057;-77
2022/05/19 03:53:15;;;;;;;2.05;1.58;;;18.50;73.80;;;;;;5115705;28;20042;-76
2022/05/19 03:55:41;;;;;;;1.80;1.42;;;18.50;73.70;;;;;;5115056;28;20043;-77
2022/05/19 03:58:06;;;;;;;2.00;1.42;;;18.50;73.70;;;;;;5115077;28;20507;-76
2022/05/19 04:00:33;;;;;;;2.70;1.92;;;18.50;73.60;;;;;;5115123;28;20035;-76
2022/05/19 04:02:59;;;;;;;1.42;1.33;;;18.60;73.70;;;;;;5115195;28;20727;-76
2022/05/19 04:05:27;;;;;;;2.25;1.63;;;18.60;73.60;;;;;;5115206;28;20032;-76
2022/05/19 04:07:53;;;;;;;2.08;1.60;;;18.70;73.70;;;;;;5115518;28;20047;-76
2022/05/19 04:10:19;;;;;;;1.33;1.23;;;18.60;73.60;;;;;;5115437;28;20032;-77
2022/05/19 04:12:45;;;;;;;2.13;1.48;;;18.70;73.60;;;;;;5115273;28;20044;-76
2022/05/19 04:15:12;;;;;;;2.08;1.38;;;18.80;73.70;;;;;;5115251;28;20450;-77
2022/05/19 04:17:39;;;;;;;1.48;1.13;;;18.80;73.60;;;;;;5114984;28;20126;-76
2022/05/19 04:20:07;;;;;;;1.30;1.20;;;18.80;73.50;;;;;;5096534;28;20078;-76
2022/05/19 04:22:33;;;;;;;1.23;1.13;;;18.90;73.40;;;;;;5096876;28;20353;-77
2022/05/19 04:25:00;;;;;;;1.15;1.00;;;18.90;73.30;;;;;;5114772;28;20539;-77
2022/05/19 04:27:28;;;;;;;2.90;1.50;;;19.00;73.30;;;;;;5114699;28;20428;-77
2022/05/19 04:29:55;;;;;;;1.55;1.15;;;18.90;73.30;;;;;;5097057;28;20498;-77
2022/05/19 04:32:20;;;;;;;2.20;1.50;;;19.00;73.30;;;;;;5062995;28;20040;-76
2022/05/19 04:34:46;;;;;;;2.28;1.25;;;19.00;73.30;;;;;;5114972;28;20039;-76
2022/05/19 04:37:12;;;;;;;1.48;0.90;;;19.10;73.30;;;;;;5114672;28;20036;-76
2022/05/19 04:39:38;;;;;;;1.10;1.02;;;19.20;73.30;;;;;;5114899;28;20054;-77
2022/05/19 04:42:06;;;;;;;2.42;1.00;;;19.10;73.20;;;;;;5096412;28;20088;-77
2022/05/19 04:44:32;;;;;;;1.27;0.88;;;19.20;73.20;;;;;;5096548;28;20396;-77
2022/05/19 04:46:58;;;;;;;1.48;1.08;;;19.20;73.20;;;;;;5096593;28;20044;-77
2022/05/19 04:49:23;;;;;;;0.82;0.80;;;19.20;73.20;;;;;;5114763;28;20131;-76
2022/05/19 04:51:49;;;;;;;0.77;0.77;;;19.20;73.10;;;;;;5114401;28;20032;-76
2022/05/19 04:54:15;;;;;;;1.17;0.80;;;19.20;73.10;;;;;;5114600;28;20516;-76
2022/05/19 04:56:42;;;;;;;0.85;0.70;;;19.20;73.10;;;;;;5114487;28;20473;-76
2022/05/19 04:59:15;;;;;;;1.63;0.80;;;19.30;73.10;;;;;;5114438;28;20039;-76
2022/05/19 05:01:42;;;;;;;1.48;0.80;;;19.20;73.20;;;;;;5097209;28;20043;-76
2022/05/19 05:04:08;;;;;;;0.75;0.70;;;19.20;73.20;;;;;;5114135;28;20602;-76
2022/05/19 05:06:34;;;;;;;0.50;0.50;;;19.20;73.20;;;;;;5114275;28;20382;-76
2022/05/19 05:09:00;;;;;;;0.77;0.68;;;19.30;73.90;;;;;;5114794;28;20047;-76
2022/05/19 05:11:26;;;;;;;0.95;0.77;;;19.20;73.20;;;;;;5114300;28;20031;-77
2022/05/19 05:13:51;;;;;;;0.95;0.60;;;19.30;73.20;;;;;;5114100;28;20546;-74
2022/05/19 05:16:17;;;;;;;0.85;0.70;;;19.30;73.10;;;;;;5114021;28;20150;-76
2022/05/19 05:18:43;;;;;;;0.80;0.70;;;19.30;73.10;;;;;;5095878;28;20050;-76
2022/05/19 05:21:11;;;;;;;0.93;0.70;;;19.30;73.10;;;;;;5114680;28;20059;-76
2022/05/19 05:23:37;;;;;;;0.93;0.82;;;19.30;73.00;;;;;;5113964;28;20035;-77
2022/05/19 05:26:03;;;;;;;0.75;0.65;;;19.40;72.90;;;;;;5078988;28;20123;-75
2022/05/19 05:28:30;;;;;;;0.80;0.70;;;19.40;72.80;;;;;;5096217;28;20062;-75
2022/05/19 05:30:56;;;;;;;0.65;0.60;;;19.50;72.70;;;;;;5078925;28;20075;-75
2022/05/19 05:33:21;;;;;;;0.50;0.50;;;19.50;72.50;;;;;;5113731;28;20066;-75
2022/05/19 05:35:47;;;;;;;0.55;0.50;;;19.60;72.40;;;;;;5095469;28;20044;-75
2022/05/19 05:38:13;;;;;;;1.10;0.50;;;19.60;72.30;;;;;;5112638;28;20496;-75
2022/05/19 05:40:39;;;;;;;1.40;0.60;;;19.60;72.30;;;;;;5095553;28;20036;-75
2022/05/19 05:43:08;;;;;;;0.85;0.57;;;19.70;72.40;;;;;;5114190;28;20511;-75
2022/05/19 05:45:33;;;;;;;0.57;0.50;;;19.70;72.40;;;;;;5111715;28;20046;-75
2022/05/19 05:47:59;;;;;;;0.43;0.43;;;19.70;72.30;;;;;;5095262;28;20043;-75
2022/05/19 05:50:25;;;;;;;0.40;0.40;;;19.80;72.40;;;;;;5113569;28;20046;-75
2022/05/19 05:52:50;;;;;;;0.43;0.43;;;19.70;72.30;;;;;;5114043;28;20039;-75
2022/05/19 05:55:16;;;;;;;0.50;0.45;;;19.70;72.20;;;;;;5113489;28;20071;-76
2022/05/19 05:57:42;;;;;;;0.50;0.50;;;19.80;72.80;;;;;;5113305;28;20035;-76
2022/05/19 06:00:11;;;;;;;0.60;0.57;;;19.80;72.00;;;;;;5095025;28;20119;-76
2022/05/19 06:02:36;;;;;;;0.50;0.40;;;19.90;71.90;;;;;;5113526;28;20062;-76
2022/05/19 06:05:03;;;;;;;0.35;0.35;;;19.90;71.70;;;;;;5095089;28;20451;-75
2022/05/19 06:07:29;;;;;;;0.40;0.40;;;20.00;71.70;;;;;;5094993;28;20085;-76
2022/05/19 06:09:56;;;;;;;0.40;0.40;;;20.00;71.60;;;;;;5094885;28;20048;-76
2022/05/19 06:12:23;;;;;;;0.40;0.40;;;20.10;71.50;;;;;;5113485;28;20130;-75
2022/05/19 06:14:49;;;;;;;0.40;0.40;;;20.10;71.40;;;;;;5094978;28;20050;-75
2022/05/19 06:17:15;;;;;;;0.50;0.50;;;20.10;71.40;;;;;;5113458;28;20047;-76
2022/05/19 06:19:42;;;;;;;0.40;0.40;;;20.10;71.50;;;;;;5113229;28;20043;-76
2022/05/19 06:22:07;;;;;;;0.30;0.30;;;20.10;72.20;;;;;;5113055;28;20044;-75
2022/05/19 06:24:33;;;;;;;0.40;0.40;;;20.10;71.60;;;;;;5112715;28;20066;-76
2022/05/19 06:26:59;;;;;;;0.38;0.38;;;20.10;71.60;;;;;;5094722;28;20184;-76
2022/05/19 06:29:25;;;;;;;0.40;0.40;;;20.20;71.50;;;;;;5113229;28;20039;-76
2022/05/19 06:31:51;;;;;;;0.47;0.47;;;20.30;71.50;;;;;;5112778;28;20044;-76
2022/05/19 06:34:17;;;;;;;0.30;0.30;;;20.40;71.40;;;;;;5113123;28;20409;-76
2022/05/19 06:36:43;;;;;;;0.30;0.30;;;20.40;71.10;;;;;;5112719;28;20043;-76
2022/05/19 06:39:09;;;;;;;0.50;0.40;;;20.50;71.00;;;;;;5094889;28;20039;-76
2022/05/19 06:44:12;;;;;;;0.40;0.40;;;20.70;70.80;;;;;;5112995;28;20044;-76
2022/05/19 06:46:37;;;;;;;0.77;0.40;;;20.80;70.80;;;;;;5094560;28;20446;-75
2022/05/19 06:49:04;;;;;;;0.57;0.50;;;20.70;70.80;;;;;;5112487;28;20035;-75
2022/05/19 06:51:31;;;;;;;0.22;0.22;;;20.70;70.70;;;;;;5094280;28;20049;-75
2022/05/19 06:53:57;;;;;;;0.63;0.38;;;20.80;70.80;;;;;;5113161;28;20035;-75
2022/05/19 06:56:22;;;;;;;0.35;0.30;;;20.80;70.80;;;;;;5094723;28;20084;-75
2022/05/19 06:58:48;;;;;;;0.70;0.38;;;20.90;70.70;;;;;;5113002;28;20122;-75
2022/05/19 07:01:14;;;;;;;0.40;0.40;;;21.00;70.80;;;;;;5112265;28;20036;-75
2022/05/19 07:03:40;;;;;;;0.30;0.30;;;20.90;70.70;;;;;;5112669;28;20043;-75
2022/05/19 07:06:05;;;;;;;0.40;0.40;;;21.00;70.80;;;;;;5094530;28;20477;-75
2022/05/19 07:08:31;;;;;;;0.40;0.40;;;21.10;70.70;;;;;;5113064;28;20039;-76
2022/05/19 07:10:57;;;;;;;0.38;0.38;;;21.10;70.50;;;;;;5112498;28;20042;-75
2022/05/19 07:13:24;;;;;;;0.52;0.50;;;21.10;70.50;;;;;;5112360;28;20043;-75
2022/05/19 07:15:49;;;;;;;0.40;0.40;;;21.20;70.50;;;;;;5094219;28;20118;-75
2022/05/19 07:18:15;;;;;;;0.43;0.30;;;21.30;70.60;;;;;;5112488;28;20169;-75
2022/05/19 07:20:44;;;;;;;1.75;0.47;;;21.40;70.50;;;;;;5093933;28;20075;-75
2022/05/19 07:23:14;;;;;;;0.52;0.45;;;21.50;70.30;;;;;;5112266;28;20040;-75
2022/05/19 07:25:41;;;;;;;0.30;0.30;;;21.60;70.30;;;;;;5112545;28;20047;-75
2022/05/19 07:28:07;;;;;;;0.45;0.45;;;21.60;70.10;;;;;;5112681;28;20075;-75
2022/05/19 07:30:33;;;;;;;0.45;0.45;;;21.60;70.10;;;;;;5112206;28;20040;-75
2022/05/19 07:32:59;;;;;;;0.50;0.50;;;21.70;70.10;;;;;;5112344;28;20497;-75
2022/05/19 07:35:25;;;;;;;0.30;0.30;;;21.80;70.10;;;;;;5094059;28;20397;-75
2022/05/19 07:37:51;;;;;;;0.32;0.30;;;21.80;70.20;;;;;;5112485;28;20054;-75
2022/05/19 07:40:17;;;;;;;0.50;0.50;;;21.80;70.30;;;;;;5111941;28;20038;-76
2022/05/19 07:42:43;;;;;;;0.40;0.40;;;21.90;70.90;;;;;;5093761;28;20050;-75
2022/05/19 07:45:10;;;;;;;0.47;0.47;;;21.90;70.10;;;;;;5112581;28;20032;-75
2022/05/19 07:47:36;;;;;;;0.45;0.45;;;22.00;70.00;;;;;;5093698;28;20046;-75
2022/05/19 07:50:03;;;;;;;0.40;0.40;;;22.10;69.90;;;;;;5111888;28;20131;-75
2022/05/19 07:52:29;;;;;;;0.40;0.40;;;22.20;69.80;;;;;;5094228;28;20114;-75
2022/05/19 07:54:55;;;;;;;0.77;0.50;;;22.20;69.70;;;;;;5111777;28;20184;-75
2022/05/19 07:57:22;;;;;;;0.63;0.50;;;22.20;69.70;;;;;;5093539;28;20043;-75
2022/05/19 07:59:48;;;;;;;0.57;0.50;;;22.30;69.80;;;;;;5111712;28;20059;-75
2022/05/19 08:02:14;;;;;;;1.02;0.75;;;22.30;69.90;;;;;;5115450;28;20488;-75
2022/05/19 08:04:40;;;;;;;0.40;0.40;;;22.40;69.80;;;;;;5115031;28;20035;-76
2022/05/19 08:07:06;;;;;;;0.40;0.40;;;22.50;69.80;;;;;;5115097;28;20050;-75
2022/05/19 08:12:16;;;;;;;0.50;0.50;;;22.80;69.40;;;;;;5115049;28;20104;-76
2022/05/19 08:17:18;;;;;;;0.40;0.40;;;23.10;68.90;;;;;;5114989;28;20048;-75
2022/05/19 08:19:45;;;;;;;0.50;0.50;;;23.20;68.50;;;;;;5114971;28;20035;-76
2022/05/19 08:22:11;;;;;;;0.80;0.70;;;23.50;68.20;;;;;;5097203;28;20043;-76
2022/05/19 08:24:37;;;;;;;0.50;0.50;;;23.80;67.80;;;;;;5114948;28;20384;-76
2022/05/19 08:27:04;;;;;;;0.50;0.50;;;24.00;67.40;;;;;;5114895;28;20043;-76
2022/05/19 08:29:31;;;;;;;4.20;0.70;;;24.30;67.10;;;;;;5115281;28;20074;-76
2022/05/19 08:31:56;;;;;;;0.77;0.68;;;24.50;66.80;;;;;;5114845;28;20092;-75
2022/05/19 08:34:22;;;;;;;0.73;0.73;;;24.80;66.40;;;;;;5096764;28;20044;-76
2022/05/19 08:36:48;;;;;;;0.95;0.75;;;25.00;65.80;;;;;;5114689;28;20094;-76
2022/05/19 08:39:15;;;;;;;0.70;0.70;;;25.30;65.60;;;;;;5114853;28;20481;-75
2022/05/19 08:41:49;;;;;;;1.15;0.95;;;25.50;65.30;;;;;;5114666;28;20039;-76
2022/05/19 08:44:24;;;;;;;1.35;0.90;;;25.60;65.20;;;;;;5097350;28;20046;-76
2022/05/19 08:46:54;;;;;;;0.70;0.70;;;25.70;65.30;;;;;;5112530;28;20128;-75
2022/05/19 08:49:33;;;;;;;1.75;0.90;;;25.80;65.30;;;;;;5096180;28;20560;-76
2022/05/19 08:52:09;;;;;;;1.25;1.15;;;26.10;65.10;;;;;;5114381;28;20050;-76
2022/05/19 08:54:38;;;;;;;0.60;0.60;;;26.40;64.90;;;;;;5112289;28;20048;-76
2022/05/19 08:57:14;;;;;;;0.80;0.80;;;26.50;64.60;;;;;;5114211;28;20043;-75
2022/05/19 08:59:58;;;;;;;0.85;0.85;;;26.70;64.20;;;;;;5114246;28;20119;-76
2022/05/19 09:02:37;;;;;;;1.15;1.00;;;26.90;63.90;;;;;;5114463;28;20043;-75
2022/05/19 09:05:42;;;;;;;0.75;0.73;;;27.20;63.80;;;;;;5113710;28;20047;-76
2022/05/19 09:08:30;;;;;;;0.82;0.77;;;27.40;63.60;;;;;;5114719;28;20501;-75
2022/05/19 09:11:12;;;;;;;0.90;0.85;;;27.60;63.40;;;;;;5114064;28;20039;-75
2022/05/19 09:14:00;;;;;;;0.80;0.80;;;27.50;63.30;;;;;;5113354;28;20437;-76
2022/05/19 09:16:30;;;;;;;0.80;0.80;;;27.50;63.40;;;;;;5112443;28;20027;-76
2022/05/19 09:19:08;;;;;;;0.77;0.77;;;27.50;63.60;;;;;;5114724;28;20039;-76
2022/05/19 09:21:36;;;;;;;0.70;0.60;;;27.60;63.70;;;;;;5096584;28;20044;-76
2022/05/19 09:24:02;;;;;;;0.85;0.85;;;27.60;63.80;;;;;;5113723;28;20038;-75
2022/05/19 09:26:52;;;;;;;0.90;0.90;;;27.60;63.90;;;;;;5095579;28;20040;-75
2022/05/19 09:29:28;;;;;;;0.80;0.80;;;27.60;64.00;;;;;;5112903;28;20039;-75
2022/05/19 09:32:03;;;;;;;1.60;0.95;;;27.80;63.80;;;;;;5095348;28;20039;-75
2022/05/19 09:34:30;;;;;;;0.73;0.73;;;28.00;63.50;;;;;;5113906;28;20044;-75
2022/05/19 09:37:07;;;;;;;0.90;0.90;;;28.10;63.20;;;;;;5113562;28;20036;-75
2022/05/19 09:39:42;;;;;;;1.42;0.80;;;28.30;63.00;;;;;;5113555;28;20032;-75
2022/05/19 09:42:12;;;;;;;1.30;0.90;;;28.40;62.80;;;;;;5113790;28;20123;-76
2022/05/19 09:44:48;;;;;;;0.75;0.75;;;28.40;62.60;;;;;;5113790;28;20038;-75
2022/05/19 09:47:19;;;;;;;0.93;0.80;;;28.40;62.70;;;;;;5113546;28;20040;-76
2022/05/19 09:49:53;;;;;;;0.68;0.60;;;28.40;62.90;;;;;;5113616;28;20044;-76
2022/05/19 09:52:24;;;;;;;0.88;0.88;;;28.30;63.00;;;;;;5113700;28;20221;-75
2022/05/19 09:54:58;;;;;;;0.95;0.80;;;28.30;63.20;;;;;;5113723;28;20079;-76
2022/05/19 09:57:42;;;;;;;1.48;1.00;;;28.20;63.10;;;;;;5113575;28;20040;-75
2022/05/19 10:00:18;;;;;;;0.98;0.70;;;28.10;63.30;;;;;;5113376;28;20442;-76
2022/05/19 10:02:48;;;;;;;1.27;1.05;;;28.10;63.40;;;;;;5111461;28;20062;-75
2022/05/19 10:05:33;;;;;;;;;;;28.00;63.40;;;;;;5113789;28;20109;-76
2022/05/19 10:08:05;;;;;;;0.90;0.90;;;27.90;63.60;;;;;;5113363;28;19912;-75
2022/05/19 10:10:35;;;;;;;0.80;0.80;;;27.80;63.80;;;;;;5113555;28;20050;-75
2022/05/19 10:13:07;;;;;;;0.93;0.90;;;27.80;63.90;;;;;;5078298;28;20115;-75
2022/05/19 10:15:54;;;;;;;0.95;0.85;;;27.70;63.90;;;;;;5113291;28;20048;-75
2022/05/19 10:18:38;;;;;;;1.02;0.93;;;27.70;63.90;;;;;;5111691;28;20046;-75
2022/05/19 10:21:19;;;;;;;0.60;0.60;;;27.80;63.60;;;;;;5111627;28;20557;-76
2022/05/19 10:23:59;;;;;;;1.30;0.98;;;27.90;63.30;;;;;;5112674;28;20069;-75
2022/05/19 10:26:39;;;;;;;1.25;0.80;;;27.90;62.90;;;;;;5112214;28;20070;-75
2022/05/19 10:32:51;;;;;;;1.02;0.93;;;28.00;62.50;;;;;;5088746;28;20042;-75
2022/05/19 10:35:33;;;;;;;0.88;0.80;;;28.10;62.40;;;;;;5079390;28;20378;-76
2022/05/19 10:38:18;;;;;;;0.82;0.82;;;28.20;62.10;;;;;;5094413;28;20122;-75
2022/05/19 10:41:12;;;;;;;0.82;0.77;;;28.30;61.70;;;;;;5096786;28;20039;-76
2022/05/19 10:44:00;;;;;;;0.80;0.65;;;28.30;61.60;;;;;;5111388;28;20035;-75
2022/05/19 10:46:32;;;;;;;0.70;0.70;;;28.40;61.50;;;;;;5112732;28;20027;-75
2022/05/19 10:49:28;;;;;;;1.27;0.70;;;28.50;61.40;;;;;;5094205;28;20051;-75
2022/05/19 10:52:17;;;;;;;0.70;0.70;;;28.60;61.00;;;;;;5112670;28;20120;-76
2022/05/19 10:54:59;;;;;;;0.63;0.63;;;28.60;60.90;;;;;;5094338;28;20050;-75
2022/05/19 10:57:56;;;;;;;0.60;0.60;;;28.50;61.00;;;;;;5111220;28;20097;-75
2022/05/19 11:00:42;;;;;;;0.95;0.77;;;28.40;61.10;;;;;;5097226;28;20041;-75
2022/05/19 11:03:32;;;;;;;0.90;0.80;;;28.50;61.10;;;;;;5111117;28;20036;-75
2022/05/19 11:06:32;;;;;;;0.70;0.70;;;28.50;60.90;;;;;;5111684;28;20173;-76
2022/05/19 11:09:05;;;;;;;;;;;28.50;60.80;;;;;;5112645;28;20397;-75
2022/05/19 11:12:03;;;;;;;0.80;0.70;;;28.40;61.20;;;;;;5112454;28;19915;-75
2022/05/19 11:14:48;;;;;;;0.77;0.77;;;28.20;61.10;;;;;;5096393;28;20039;-75
2022/05/19 11:17:33;;;;;;;1.67;0.60;;;28.30;61.20;;;;;;5092870;28;20047;-75
2022/05/19 11:20:05;;;;;;;1.33;0.80;;;28.40;60.90;;;;;;5111177;28;20485;-75
2022/05/19 11:22:35;;;;;;;0.60;0.60;;;28.50;60.50;;;;;;5111967;28;20047;-75
2022/05/19 11:27:56;;;;;;;0.95;0.80;;;28.30;60.50;;;;;;5111942;28;20043;-75
2022/05/19 11:30:30;;;;;;;0.73;0.70;;;28.20;61.00;;;;;;5032651;28;20040;-75
2022/05/19 11:33:00;;;;;;;0.85;0.85;;;28.10;61.00;;;;;;5016963;28;20530;-74
2022/05/19 11:35:34;;;;;;;1.02;0.80;;;28.10;61.00;;;;;;5050544;28;20098;-72
2022/05/19 11:38:25;;;;;;;0.65;0.65;;;28.00;61.00;;;;;;5053045;28;20438;-73
2022/05/19 11:41:01;;;;;;;1.02;0.70;;;28.00;60.90;;;;;;5036161;28;20073;-74
2022/05/19 11:43:43;;;;;;;0.70;0.70;;;27.80;61.10;;;;;;5053537;28;20045;-74
2022/05/19 11:46:15;;;;;;;0.60;0.60;;;27.60;61.60;;;;;;5052702;28;20064;-73
2022/05/19 11:57:42;;;;;;;0.60;0.60;;;26.80;63.20;;;;;;5052314;28;19917;-73
2022/05/19 12:00:11;;;;;;;0.70;0.70;;;26.60;63.40;;;;;;5053647;28;20043;-74
2022/05/19 12:02:48;;;;;;;0.70;0.70;;;26.60;63.60;;;;;;5114654;28;20062;-74
2022/05/19 12:05:25;;;;;;;0.70;0.70;;;26.50;63.60;;;;;;5115103;28;20431;-74
2022/05/19 12:07:57;;;;;;;0.63;0.63;;;26.40;63.60;;;;;;5096958;28;20043;-74
2022/05/19 12:10:31;;;;;;;3.80;0.93;;;26.40;63.80;;;;;;5096771;28;20047;-74
2022/05/19 12:13:00;;;;;;;1.77;0.80;;;26.20;64.60;;;;;;5115166;28;20054;-75
2022/05/19 12:15:36;;;;;;;2.78;1.30;;;26.00;64.20;;;;;;5115220;28;20521;-75
2022/05/19 12:18:36;;;;;;;3.97;1.20;;;25.40;65.00;;;;;;5114857;28;20047;-75
2022/05/19 12:21:28;;;;;;;2.83;1.40;;;24.20;66.90;;;;;;5114819;28;20470;-82
2022/05/19 12:23:56;;;;;;;4.78;1.33;;;22.80;69.30;;;;;;5098564;28;20043;-80
2022/05/19 12:26:24;;;;;;;4.75;0.93;;;21.30;71.90;;;;;;5116571;28;20427;-80
2022/05/19 12:29:13;;;;;;;2.30;0.77;;;20.20;74.70;;;;;;5099706;28;20043;-82
2022/05/19 12:34:23;;;;;;;0.75;0.50;;;18.80;77.60;;;;;;5118622;28;20120;-81
2022/05/19 12:37:07;;;;;;;1.25;0.50;;;18.50;78.20;;;;;;5082056;28;20047;-80
2022/05/19 12:39:47;;;;;;;0.47;0.40;;;18.20;78.60;;;;;;5100674;28;20040;-80
2022/05/19 12:42:19;;;;;;;0.20;0.20;;;18.10;78.60;;;;;;5124259;28;20047;-80
2022/05/19 12:44:50;;;;;;;0.73;0.40;;;18.00;78.50;;;;;;5127579;28;20071;-80
2022/05/19 12:47:23;;;;;;;0.93;0.50;;;18.00;78.50;;;;;;5121004;28;20077;-80
2022/05/19 12:50:20;;;;;;;1.27;0.50;;;17.90;78.50;;;;;;5096427;28;20129;-79
2022/05/19 12:53:06;;;;;;;0.40;0.40;;;17.90;78.40;;;;;;5114576;28;20040;-79
2022/05/19 12:55:46;;;;;;;1.02;0.63;;;17.90;78.10;;;;;;5115997;28;20512;-80
2022/05/19 12:58:46;;;;;;;0.40;0.40;;;18.00;77.90;;;;;;5096603;28;20056;-80
2022/05/19 13:01:34;;;;;;;0.57;0.50;;;18.00;77.70;;;;;;5113853;28;20036;-78
2022/05/19 13:04:32;;;;;;;0.30;0.30;;;18.00;77.50;;;;;;5114170;28;20035;-78
2022/05/19 13:07:15;;;;;;;2.33;0.40;;;18.00;77.40;;;;;;5113589;28;20374;-79
2022/05/19 13:09:51;;;;;;;0.30;0.30;;;18.10;77.30;;;;;;5095841;28;20040;-79
2022/05/19 13:12:23;;;;;;;0.93;0.40;;;18.10;77.10;;;;;;5114642;28;20067;-80
2022/05/19 13:15:03;;;;;;;0.88;0.50;;;18.10;77.10;;;;;;5114108;28;20047;-80
2022/05/19 13:17:43;;;;;;;0.40;0.30;;;18.10;77.20;;;;;;5079081;28;20036;-79
2022/05/19 13:20:15;;;;;;;0.40;0.40;;;18.10;77.10;;;;;;5113711;28;20127;-78
2022/05/19 13:22:49;;;;;;;0.38;0.30;;;18.00;77.00;;;;;;5113995;28;20043;-79
2022/05/19 13:25:15;;;;;;;0.40;0.40;;;18.10;77.10;;;;;;5079133;28;20370;-79
2022/05/19 13:30:20;;;;;;;0.63;0.38;;;18.10;77.10;;;;;;5097369;28;20046;-79
2022/05/19 13:32:46;;;;;;;0.43;0.43;;;18.20;77.10;;;;;;5114104;28;20127;-79
2022/05/19 13:35:18;;;;;;;0.30;0.30;;;18.20;77.00;;;;;;5095667;28;20069;-79
2022/05/19 13:37:46;;;;;;;0.52;0.52;;;18.10;76.90;;;;;;5095699;28;20118;-79
2022/05/19 13:40:17;;;;;;;0.50;0.50;;;18.20;77.00;;;;;;5096263;28;20040;-79